sensor_id;sensor_type;location;lat;lon;timestamp;P1;durP1;ratioP1;P2;durP2;ratioP2
15616;SDS011;7908;51.688;7.130;2022-09-09T00:01:20;4.57;;;2.60;;
15616;SDS011;7908;51.688;7.130;2022-09-09T00:04:00;5.73;;;3.30;;
15616;SDS011;7908;51.688;7.130;2022-09-09T00:06:44;3.53;;;2.90;;
15616;SDS011;7908;51.688;7.130;2022-09-09T00:09:17;5.80;;;2.87;;
15616;SDS011;7908;51.688;7.130;2022-09-09T00:11:51;5.20;;;3.07;;
15616;SDS011;7908;51.688;7.130;2022-09-09T00:14:23;8.87;;;3.23;;
15616;SDS011;7908;51.688;7.130;2022-09-09T00:17:07;5.50;;;3.00;;
15616;SDS011;7908;51.688;7.130;2022-09-09T00:19:41;4.60;;;2.70;;
15616;SDS011;7908;51.688;7.130;2022-09-09T00:22:19;4.67;;;2.80;;
15616;SDS011;7908;51.688;7.130;2022-09-09T00:24:51;6.47;;;3.00;;
15616;SDS011;7908;51.688;7.130;2022-09-09T00:27:24;4.53;;;2.93;;
15616;SDS011;7908;51.688;7.130;2022-09-09T00:29:57;4.90;;;2.83;;
15616;SDS011;7908;51.688;7.130;2022-09-09T00:32:29;6.27;;;3.00;;
15616;SDS011;7908;51.688;7.130;2022-09-09T00:35:03;4.83;;;3.27;;
15616;SDS011;7908;51.688;7.130;2022-09-09T00:37:46;6.20;;;2.93;;
15616;SDS011;7908;51.688;7.130;2022-09-09T00:40:44;5.50;;;2.67;;
15616;SDS011;7908;51.688;7.130;2022-09-09T00:43:56;6.20;;;2.57;;
15616;SDS011;7908;51.688;7.130;2022-09-09T00:47:36;7.40;;;3.07;;
15616;SDS011;7908;51.688;7.130;2022-09-09T00:51:46;6.07;;;2.90;;
15616;SDS011;7908;51.688;7.130;2022-09-09T00:58:06;5.60;;;3.10;;
15616;SDS011;7908;51.688;7.130;2022-09-09T01:00:52;4.57;;;3.07;;
15616;SDS011;7908;51.688;7.130;2022-09-09T01:03:41;8.50;;;3.10;;
15616;SDS011;7908;51.688;7.130;2022-09-09T01:06:16;5.57;;;3.10;;
15616;SDS011;7908;51.688;7.130;2022-09-09T01:08:57;4.93;;;3.23;;
15616;SDS011;7908;51.688;7.130;2022-09-09T01:11:59;6.27;;;3.53;;
15616;SDS011;7908;51.688;7.130;2022-09-09T01:14:44;7.23;;;3.73;;
15616;SDS011;7908;51.688;7.130;2022-09-09T01:18:02;5.50;;;3.47;;
15616;SDS011;7908;51.688;7.130;2022-09-09T01:20:54;5.80;;;3.40;;
15616;SDS011;7908;51.688;7.130;2022-09-09T01:24:03;4.93;;;3.50;;
15616;SDS011;7908;51.688;7.130;2022-09-09T01:31:17;5.17;;;3.00;;
15616;SDS011;7908;51.688;7.130;2022-09-09T01:35:27;6.27;;;3.50;;
15616;SDS011;7908;51.688;7.130;2022-09-09T01:42:39;3.73;;;2.90;;
15616;SDS011;7908;51.688;7.130;2022-09-09T01:45:25;4.77;;;3.43;;
15616;SDS011;7908;51.688;7.130;2022-09-09T01:47:59;5.60;;;3.40;;
15616;SDS011;7908;51.688;7.130;2022-09-09T01:50:31;6.07;;;3.90;;
15616;SDS011;7908;51.688;7.130;2022-09-09T01:53:04;6.70;;;3.67;;
15616;SDS011;7908;51.688;7.130;2022-09-09T01:55:42;6.23;;;3.77;;
15616;SDS011;7908;51.688;7.130;2022-09-09T02:06:18;7.97;;;4.23;;
15616;SDS011;7908;51.688;7.130;2022-09-09T02:08:56;10.57;;;4.43;;
15616;SDS011;7908;51.688;7.130;2022-09-09T02:11:35;5.87;;;4.30;;
15616;SDS011;7908;51.688;7.130;2022-09-09T02:14:12;6.60;;;4.40;;
15616;SDS011;7908;51.688;7.130;2022-09-09T02:16:58;6.10;;;3.93;;
15616;SDS011;7908;51.688;7.130;2022-09-09T02:19:41;6.53;;;4.60;;
15616;SDS011;7908;51.688;7.130;2022-09-09T02:22:20;8.07;;;4.70;;
15616;SDS011;7908;51.688;7.130;2022-09-09T02:24:52;7.37;;;4.57;;
15616;SDS011;7908;51.688;7.130;2022-09-09T02:27:44;7.03;;;4.90;;
15616;SDS011;7908;51.688;7.130;2022-09-09T02:30:33;9.63;;;6.00;;
15616;SDS011;7908;51.688;7.130;2022-09-09T02:33:11;7.20;;;5.00;;
15616;SDS011;7908;51.688;7.130;2022-09-09T02:35:43;7.40;;;4.93;;
15616;SDS011;7908;51.688;7.130;2022-09-09T02:38:19;7.93;;;5.27;;
15616;SDS011;7908;51.688;7.130;2022-09-09T02:41:00;9.47;;;5.57;;
15616;SDS011;7908;51.688;7.130;2022-09-09T02:43:31;8.70;;;5.93;;
15616;SDS011;7908;51.688;7.130;2022-09-09T02:46:03;8.50;;;5.37;;
15616;SDS011;7908;51.688;7.130;2022-09-09T02:48:40;7.60;;;5.20;;
15616;SDS011;7908;51.688;7.130;2022-09-09T02:51:18;8.93;;;5.77;;
15616;SDS011;7908;51.688;7.130;2022-09-09T03:09:19;6.53;;;4.73;;
15616;SDS011;7908;51.688;7.130;2022-09-09T03:11:48;10.30;;;5.07;;
15616;SDS011;7908;51.688;7.130;2022-09-09T03:14:20;6.97;;;5.00;;
15616;SDS011;7908;51.688;7.130;2022-09-09T03:16:58;9.97;;;5.63;;
15616;SDS011;7908;51.688;7.130;2022-09-09T03:19:58;8.70;;;5.50;;
15616;SDS011;7908;51.688;7.130;2022-09-09T03:22:28;8.77;;;4.97;;
15616;SDS011;7908;51.688;7.130;2022-09-09T03:24:58;6.13;;;4.87;;
15616;SDS011;7908;51.688;7.130;2022-09-09T03:27:28;8.30;;;5.07;;
15616;SDS011;7908;51.688;7.130;2022-09-09T03:29:57;9.10;;;5.60;;
15616;SDS011;7908;51.688;7.130;2022-09-09T03:32:30;10.77;;;5.30;;
15616;SDS011;7908;51.688;7.130;2022-09-09T03:35:01;7.93;;;4.63;;
15616;SDS011;7908;51.688;7.130;2022-09-09T03:37:30;7.17;;;5.43;;
15616;SDS011;7908;51.688;7.130;2022-09-09T03:40:00;7.33;;;5.13;;
15616;SDS011;7908;51.688;7.130;2022-09-09T03:42:35;6.07;;;4.70;;
15616;SDS011;7908;51.688;7.130;2022-09-09T03:45:04;10.37;;;5.83;;
15616;SDS011;7908;51.688;7.130;2022-09-09T03:47:35;11.03;;;5.93;;
15616;SDS011;7908;51.688;7.130;2022-09-09T03:50:04;8.73;;;5.70;;
15616;SDS011;7908;51.688;7.130;2022-09-09T03:52:36;7.67;;;5.63;;
15616;SDS011;7908;51.688;7.130;2022-09-09T03:55:07;7.30;;;5.53;;
15616;SDS011;7908;51.688;7.130;2022-09-09T03:57:36;7.20;;;5.37;;
15616;SDS011;7908;51.688;7.130;2022-09-09T04:00:06;9.87;;;5.57;;
15616;SDS011;7908;51.688;7.130;2022-09-09T04:02:35;9.43;;;6.20;;
15616;SDS011;7908;51.688;7.130;2022-09-09T04:05:06;11.00;;;5.97;;
15616;SDS011;7908;51.688;7.130;2022-09-09T04:07:35;9.17;;;5.97;;
15616;SDS011;7908;51.688;7.130;2022-09-09T04:10:04;10.90;;;6.80;;
15616;SDS011;7908;51.688;7.130;2022-09-09T04:12:35;8.40;;;5.67;;
15616;SDS011;7908;51.688;7.130;2022-09-09T04:15:05;8.10;;;6.70;;
15616;SDS011;7908;51.688;7.130;2022-09-09T04:17:34;9.80;;;6.70;;
15616;SDS011;7908;51.688;7.130;2022-09-09T04:20:03;10.03;;;6.60;;
15616;SDS011;7908;51.688;7.130;2022-09-09T04:22:34;10.47;;;6.83;;
15616;SDS011;7908;51.688;7.130;2022-09-09T04:27:57;9.60;;;6.90;;
15616;SDS011;7908;51.688;7.130;2022-09-09T04:30:25;9.27;;;6.73;;
15616;SDS011;7908;51.688;7.130;2022-09-09T04:32:55;10.80;;;7.07;;
15616;SDS011;7908;51.688;7.130;2022-09-09T04:35:24;10.67;;;7.20;;
15616;SDS011;7908;51.688;7.130;2022-09-09T04:37:53;13.80;;;8.07;;
15616;SDS011;7908;51.688;7.130;2022-09-09T04:40:22;13.73;;;9.43;;
15616;SDS011;7908;51.688;7.130;2022-09-09T04:42:51;15.87;;;10.60;;
15616;SDS011;7908;51.688;7.130;2022-09-09T04:45:21;16.63;;;9.63;;
15616;SDS011;7908;51.688;7.130;2022-09-09T04:47:50;19.90;;;10.40;;
15616;SDS011;7908;51.688;7.130;2022-09-09T04:50:19;15.63;;;10.63;;
15616;SDS011;7908;51.688;7.130;2022-09-09T04:53:03;15.73;;;10.23;;
15616;SDS011;7908;51.688;7.130;2022-09-09T04:55:33;16.17;;;9.07;;
15616;SDS011;7908;51.688;7.130;2022-09-09T04:58:03;20.43;;;10.57;;
15616;SDS011;7908;51.688;7.130;2022-09-09T05:00:33;14.10;;;9.17;;
15616;SDS011;7908;51.688;7.130;2022-09-09T05:03:03;14.00;;;9.27;;
15616;SDS011;7908;51.688;7.130;2022-09-09T05:05:32;17.27;;;10.20;;
15616;SDS011;7908;51.688;7.130;2022-09-09T05:08:03;13.43;;;8.77;;
15616;SDS011;7908;51.688;7.130;2022-09-09T05:10:33;13.80;;;8.83;;
15616;SDS011;7908;51.688;7.130;2022-09-09T05:13:02;13.63;;;9.67;;
15616;SDS011;7908;51.688;7.130;2022-09-09T05:15:31;15.83;;;8.90;;
15616;SDS011;7908;51.688;7.130;2022-09-09T05:18:01;18.77;;;10.03;;
15616;SDS011;7908;51.688;7.130;2022-09-09T05:20:29;13.57;;;8.63;;
15616;SDS011;7908;51.688;7.130;2022-09-09T05:22:58;12.73;;;8.23;;
15616;SDS011;7908;51.688;7.130;2022-09-09T05:25:27;12.00;;;8.40;;
15616;SDS011;7908;51.688;7.130;2022-09-09T05:27:55;13.43;;;8.43;;
15616;SDS011;7908;51.688;7.130;2022-09-09T05:30:26;15.03;;;8.37;;
15616;SDS011;7908;51.688;7.130;2022-09-09T05:35:43;12.77;;;8.10;;
15616;SDS011;7908;51.688;7.130;2022-09-09T05:38:12;9.73;;;6.63;;
15616;SDS011;7908;51.688;7.130;2022-09-09T05:40:46;16.77;;;7.60;;
15616;SDS011;7908;51.688;7.130;2022-09-09T05:43:21;13.63;;;6.60;;
15616;SDS011;7908;51.688;7.130;2022-09-09T05:45:58;15.43;;;6.43;;
15616;SDS011;7908;51.688;7.130;2022-09-09T05:48:30;10.17;;;6.07;;
15616;SDS011;7908;51.688;7.130;2022-09-09T05:51:11;14.27;;;6.73;;
15616;SDS011;7908;51.688;7.130;2022-09-09T05:53:42;11.13;;;5.57;;
15616;SDS011;7908;51.688;7.130;2022-09-09T05:56:11;6.93;;;5.83;;
15616;SDS011;7908;51.688;7.130;2022-09-09T05:58:41;12.50;;;6.03;;
15616;SDS011;7908;51.688;7.130;2022-09-09T06:01:21;10.17;;;5.90;;
15616;SDS011;7908;51.688;7.130;2022-09-09T06:03:53;12.53;;;5.60;;
15616;SDS011;7908;51.688;7.130;2022-09-09T06:06:23;11.00;;;5.50;;
15616;SDS011;7908;51.688;7.130;2022-09-09T06:08:54;15.77;;;5.20;;
15616;SDS011;7908;51.688;7.130;2022-09-09T06:11:24;13.13;;;5.10;;
15616;SDS011;7908;51.688;7.130;2022-09-09T06:13:54;11.57;;;4.70;;
15616;SDS011;7908;51.688;7.130;2022-09-09T06:16:23;10.10;;;4.57;;
15616;SDS011;7908;51.688;7.130;2022-09-09T06:18:55;11.43;;;4.47;;
15616;SDS011;7908;51.688;7.130;2022-09-09T06:21:25;9.30;;;4.13;;
15616;SDS011;7908;51.688;7.130;2022-09-09T06:23:55;11.97;;;4.40;;
15616;SDS011;7908;51.688;7.130;2022-09-09T06:26:27;13.20;;;4.60;;
15616;SDS011;7908;51.688;7.130;2022-09-09T06:29:00;12.00;;;4.83;;
15616;SDS011;7908;51.688;7.130;2022-09-09T06:31:30;12.73;;;5.30;;
15616;SDS011;7908;51.688;7.130;2022-09-09T06:34:03;11.00;;;5.20;;
15616;SDS011;7908;51.688;7.130;2022-09-09T06:36:34;9.20;;;4.63;;
15616;SDS011;7908;51.688;7.130;2022-09-09T06:39:04;11.63;;;5.83;;
15616;SDS011;7908;51.688;7.130;2022-09-09T06:41:40;9.93;;;5.50;;
15616;SDS011;7908;51.688;7.130;2022-09-09T06:44:09;13.87;;;5.60;;
15616;SDS011;7908;51.688;7.130;2022-09-09T06:46:40;14.53;;;5.30;;
15616;SDS011;7908;51.688;7.130;2022-09-09T06:49:11;11.27;;;5.10;;
15616;SDS011;7908;51.688;7.130;2022-09-09T06:51:39;10.60;;;4.33;;
15616;SDS011;7908;51.688;7.130;2022-09-09T06:54:09;10.63;;;4.93;;
15616;SDS011;7908;51.688;7.130;2022-09-09T06:56:39;7.57;;;4.77;;
15616;SDS011;7908;51.688;7.130;2022-09-09T06:59:09;10.37;;;4.70;;
15616;SDS011;7908;51.688;7.130;2022-09-09T07:01:39;11.87;;;4.50;;
15616;SDS011;7908;51.688;7.130;2022-09-09T07:04:11;13.40;;;4.43;;
15616;SDS011;7908;51.688;7.130;2022-09-09T07:06:41;10.27;;;4.37;;
15616;SDS011;7908;51.688;7.130;2022-09-09T07:09:12;14.67;;;4.53;;
15616;SDS011;7908;51.688;7.130;2022-09-09T07:11:43;12.30;;;4.57;;
15616;SDS011;7908;51.688;7.130;2022-09-09T07:14:13;11.50;;;4.43;;
15616;SDS011;7908;51.688;7.130;2022-09-09T07:16:47;10.33;;;4.70;;
15616;SDS011;7908;51.688;7.130;2022-09-09T07:19:17;9.30;;;4.23;;
15616;SDS011;7908;51.688;7.130;2022-09-09T07:21:46;9.80;;;4.33;;
15616;SDS011;7908;51.688;7.130;2022-09-09T07:24:14;9.73;;;4.27;;
15616;SDS011;7908;51.688;7.130;2022-09-09T07:29:32;10.03;;;3.10;;
15616;SDS011;7908;51.688;7.130;2022-09-09T07:32:01;6.83;;;2.80;;
15616;SDS011;7908;51.688;7.130;2022-09-09T07:34:32;6.60;;;3.10;;
15616;SDS011;7908;51.688;7.130;2022-09-09T07:37:01;11.33;;;2.80;;
15616;SDS011;7908;51.688;7.130;2022-09-09T07:39:29;11.57;;;2.80;;
15616;SDS011;7908;51.688;7.130;2022-09-09T07:41:58;5.40;;;2.40;;
15616;SDS011;7908;51.688;7.130;2022-09-09T07:44:27;7.10;;;2.47;;
15616;SDS011;7908;51.688;7.130;2022-09-09T07:46:58;9.73;;;2.80;;
15616;SDS011;7908;51.688;7.130;2022-09-09T07:49:26;5.57;;;2.30;;
15616;SDS011;7908;51.688;7.130;2022-09-09T07:51:59;11.37;;;2.47;;
15616;SDS011;7908;51.688;7.130;2022-09-09T07:54:29;6.80;;;2.23;;
15616;SDS011;7908;51.688;7.130;2022-09-09T07:56:58;9.27;;;2.43;;
15616;SDS011;7908;51.688;7.130;2022-09-09T07:59:26;7.87;;;2.70;;
15616;SDS011;7908;51.688;7.130;2022-09-09T08:02:01;8.03;;;2.73;;
15616;SDS011;7908;51.688;7.130;2022-09-09T08:04:30;10.93;;;2.83;;
15616;SDS011;7908;51.688;7.130;2022-09-09T08:07:00;8.90;;;2.70;;
15616;SDS011;7908;51.688;7.130;2022-09-09T08:09:29;6.80;;;2.57;;
15616;SDS011;7908;51.688;7.130;2022-09-09T08:12:00;9.60;;;3.30;;
15616;SDS011;7908;51.688;7.130;2022-09-09T08:14:29;8.90;;;2.67;;
15616;SDS011;7908;51.688;7.130;2022-09-09T08:17:07;7.23;;;2.17;;
15616;SDS011;7908;51.688;7.130;2022-09-09T08:19:54;5.20;;;1.87;;
15616;SDS011;7908;51.688;7.130;2022-09-09T08:22:38;7.13;;;1.80;;
15616;SDS011;7908;51.688;7.130;2022-09-09T08:25:08;5.70;;;1.90;;
15616;SDS011;7908;51.688;7.130;2022-09-09T08:27:37;6.60;;;2.07;;
15616;SDS011;7908;51.688;7.130;2022-09-09T08:30:06;6.33;;;1.93;;
15616;SDS011;7908;51.688;7.130;2022-09-09T08:32:35;11.43;;;1.90;;
15616;SDS011;7908;51.688;7.130;2022-09-09T08:35:07;6.07;;;1.80;;
15616;SDS011;7908;51.688;7.130;2022-09-09T08:37:36;8.93;;;2.20;;
15616;SDS011;7908;51.688;7.130;2022-09-09T08:40:07;5.70;;;1.83;;
15616;SDS011;7908;51.688;7.130;2022-09-09T08:42:45;6.50;;;1.83;;
15616;SDS011;7908;51.688;7.130;2022-09-09T08:45:31;5.47;;;1.53;;
15616;SDS011;7908;51.688;7.130;2022-09-09T08:48:08;9.70;;;1.90;;
15616;SDS011;7908;51.688;7.130;2022-09-09T08:50:51;6.13;;;1.63;;
15616;SDS011;7908;51.688;7.130;2022-09-09T08:53:42;7.80;;;1.97;;
15616;SDS011;7908;51.688;7.130;2022-09-09T08:56:25;7.90;;;1.70;;
15616;SDS011;7908;51.688;7.130;2022-09-09T08:58:55;5.90;;;1.50;;
15616;SDS011;7908;51.688;7.130;2022-09-09T09:01:33;5.67;;;1.73;;
15616;SDS011;7908;51.688;7.130;2022-09-09T09:04:13;4.77;;;1.50;;
15616;SDS011;7908;51.688;7.130;2022-09-09T09:06:51;5.47;;;1.70;;
15616;SDS011;7908;51.688;7.130;2022-09-09T09:09:29;5.33;;;1.83;;
15616;SDS011;7908;51.688;7.130;2022-09-09T09:12:07;11.80;;;1.90;;
15616;SDS011;7908;51.688;7.130;2022-09-09T09:14:43;6.37;;;1.70;;
15616;SDS011;7908;51.688;7.130;2022-09-09T09:17:16;5.47;;;1.63;;
15616;SDS011;7908;51.688;7.130;2022-09-09T09:19:46;7.57;;;1.70;;
15616;SDS011;7908;51.688;7.130;2022-09-09T09:22:18;6.80;;;1.70;;
15616;SDS011;7908;51.688;7.130;2022-09-09T09:24:52;3.97;;;1.40;;
15616;SDS011;7908;51.688;7.130;2022-09-09T09:30:14;3.67;;;1.50;;
15616;SDS011;7908;51.688;7.130;2022-09-09T09:32:55;5.33;;;1.70;;
15616;SDS011;7908;51.688;7.130;2022-09-09T09:35:30;5.27;;;2.03;;
15616;SDS011;7908;51.688;7.130;2022-09-09T09:38:08;6.67;;;1.73;;
15616;SDS011;7908;51.688;7.130;2022-09-09T09:41:05;5.33;;;1.73;;
15616;SDS011;7908;51.688;7.130;2022-09-09T09:43:35;7.87;;;1.60;;
15616;SDS011;7908;51.688;7.130;2022-09-09T09:46:17;5.57;;;1.43;;
15616;SDS011;7908;51.688;7.130;2022-09-09T09:48:56;2.87;;;1.17;;
15616;SDS011;7908;51.688;7.130;2022-09-09T09:51:45;4.77;;;1.50;;
15616;SDS011;7908;51.688;7.130;2022-09-09T09:54:15;3.83;;;1.30;;
15616;SDS011;7908;51.688;7.130;2022-09-09T09:56:51;3.17;;;1.23;;
15616;SDS011;7908;51.688;7.130;2022-09-09T09:59:21;3.60;;;1.17;;
15616;SDS011;7908;51.688;7.130;2022-09-09T10:02:14;4.07;;;1.40;;
15616;SDS011;7908;51.688;7.130;2022-09-09T10:04:44;3.20;;;1.03;;
15616;SDS011;7908;51.688;7.130;2022-09-09T10:07:17;4.87;;;1.30;;
15616;SDS011;7908;51.688;7.130;2022-09-09T10:09:48;4.37;;;1.40;;
15616;SDS011;7908;51.688;7.130;2022-09-09T10:12:27;5.83;;;1.30;;
15616;SDS011;7908;51.688;7.130;2022-09-09T10:15:07;5.40;;;1.27;;
15616;SDS011;7908;51.688;7.130;2022-09-09T10:17:56;4.07;;;1.13;;
15616;SDS011;7908;51.688;7.130;2022-09-09T10:20:35;4.80;;;1.25;;
15616;SDS011;7908;51.688;7.130;2022-09-09T10:23:18;5.68;;;1.27;;
15616;SDS011;7908;51.688;7.130;2022-09-09T10:26:00;4.45;;;1.20;;
15616;SDS011;7908;51.688;7.130;2022-09-09T10:28:54;4.03;;;1.60;;
15616;SDS011;7908;51.688;7.130;2022-09-09T10:31:35;3.08;;;1.15;;
15616;SDS011;7908;51.688;7.130;2022-09-09T10:34:33;5.45;;;1.20;;
15616;SDS011;7908;51.688;7.130;2022-09-09T10:37:18;5.00;;;1.40;;
15616;SDS011;7908;51.688;7.130;2022-09-09T10:39:56;4.60;;;1.35;;
15616;SDS011;7908;51.688;7.130;2022-09-09T10:42:39;4.85;;;1.50;;
15616;SDS011;7908;51.688;7.130;2022-09-09T10:45:15;4.80;;;1.60;;
15616;SDS011;7908;51.688;7.130;2022-09-09T10:50:46;5.22;;;1.33;;
15616;SDS011;7908;51.688;7.130;2022-09-09T10:53:33;3.60;;;1.20;;
15616;SDS011;7908;51.688;7.130;2022-09-09T10:56:06;4.18;;;1.27;;
15616;SDS011;7908;51.688;7.130;2022-09-09T10:58:39;3.72;;;1.20;;
15616;SDS011;7908;51.688;7.130;2022-09-09T11:01:18;4.70;;;1.23;;
15616;SDS011;7908;51.688;7.130;2022-09-09T11:03:52;3.33;;;0.90;;
15616;SDS011;7908;51.688;7.130;2022-09-09T11:06:26;3.90;;;1.45;;
15616;SDS011;7908;51.688;7.130;2022-09-09T11:09:00;3.40;;;1.08;;
15616;SDS011;7908;51.688;7.130;2022-09-09T11:11:37;3.15;;;0.90;;
15616;SDS011;7908;51.688;7.130;2022-09-09T11:14:11;2.65;;;1.00;;
15616;SDS011;7908;51.688;7.130;2022-09-09T11:16:46;2.83;;;1.05;;
15616;SDS011;7908;51.688;7.130;2022-09-09T11:19:21;2.75;;;1.10;;
15616;SDS011;7908;51.688;7.130;2022-09-09T11:21:56;4.78;;;1.30;;
15616;SDS011;7908;51.688;7.130;2022-09-09T11:24:30;3.72;;;0.80;;
15616;SDS011;7908;51.688;7.130;2022-09-09T11:27:07;4.80;;;1.38;;
15616;SDS011;7908;51.688;7.130;2022-09-09T11:29:50;1.73;;;0.95;;
15616;SDS011;7908;51.688;7.130;2022-09-09T11:36:46;6.10;;;1.02;;
15616;SDS011;7908;51.688;7.130;2022-09-09T11:39:36;2.20;;;1.00;;
15616;SDS011;7908;51.688;7.130;2022-09-09T11:42:36;4.07;;;1.33;;
15616;SDS011;7908;51.688;7.130;2022-09-09T11:45:09;3.53;;;0.82;;
15616;SDS011;7908;51.688;7.130;2022-09-09T11:47:51;4.00;;;0.93;;
15616;SDS011;7908;51.688;7.130;2022-09-09T11:50:29;2.92;;;1.05;;
15616;SDS011;7908;51.688;7.130;2022-09-09T11:53:15;4.82;;;1.33;;
15616;SDS011;7908;51.688;7.130;2022-09-09T11:56:24;4.15;;;1.10;;
15616;SDS011;7908;51.688;7.130;2022-09-09T11:58:59;4.22;;;1.40;;
15616;SDS011;7908;51.688;7.130;2022-09-09T12:01:33;3.70;;;1.73;;
15616;SDS011;7908;51.688;7.130;2022-09-09T12:04:12;3.75;;;0.90;;
15616;SDS011;7908;51.688;7.130;2022-09-09T12:06:49;4.47;;;1.42;;
15616;SDS011;7908;51.688;7.130;2022-09-09T12:09:25;4.40;;;1.30;;
15616;SDS011;7908;51.688;7.130;2022-09-09T12:12:04;2.22;;;0.95;;
15616;SDS011;7908;51.688;7.130;2022-09-09T12:14:35;2.97;;;1.17;;
15616;SDS011;7908;51.688;7.130;2022-09-09T12:17:26;5.32;;;1.10;;
15616;SDS011;7908;51.688;7.130;2022-09-09T12:20:00;3.75;;;1.30;;
15616;SDS011;7908;51.688;7.130;2022-09-09T12:22:35;3.95;;;1.23;;
15616;SDS011;7908;51.688;7.130;2022-09-09T12:25:18;2.53;;;1.20;;
15616;SDS011;7908;51.688;7.130;2022-09-09T12:30:56;4.18;;;1.50;;
15616;SDS011;7908;51.688;7.130;2022-09-09T12:33:35;5.97;;;1.02;;
15616;SDS011;7908;51.688;7.130;2022-09-09T12:36:15;10.68;;;2.85;;
15616;SDS011;7908;51.688;7.130;2022-09-09T12:38:49;5.35;;;1.20;;
15616;SDS011;7908;51.688;7.130;2022-09-09T12:41:21;3.40;;;1.53;;
15616;SDS011;7908;51.688;7.130;2022-09-09T12:44:03;4.20;;;1.80;;
15616;SDS011;7908;51.688;7.130;2022-09-09T12:46:52;7.67;;;1.90;;
15616;SDS011;7908;51.688;7.130;2022-09-09T12:49:27;7.23;;;1.90;;
15616;SDS011;7908;51.688;7.130;2022-09-09T12:52:02;4.17;;;1.70;;
15616;SDS011;7908;51.688;7.130;2022-09-09T12:54:35;4.53;;;1.73;;
15616;SDS011;7908;51.688;7.130;2022-09-09T12:57:09;3.67;;;1.53;;
15616;SDS011;7908;51.688;7.130;2022-09-09T13:00:04;5.47;;;1.60;;
15616;SDS011;7908;51.688;7.130;2022-09-09T13:02:52;5.37;;;1.60;;
15616;SDS011;7908;51.688;7.130;2022-09-09T13:05:28;6.13;;;1.87;;
15616;SDS011;7908;51.688;7.130;2022-09-09T13:08:06;5.00;;;1.60;;
15616;SDS011;7908;51.688;7.130;2022-09-09T13:10:39;5.30;;;1.53;;
15616;SDS011;7908;51.688;7.130;2022-09-09T13:13:22;4.67;;;1.83;;
15616;SDS011;7908;51.688;7.130;2022-09-09T13:16:00;3.87;;;1.50;;
15616;SDS011;7908;51.688;7.130;2022-09-09T13:18:35;3.63;;;1.50;;
15616;SDS011;7908;51.688;7.130;2022-09-09T13:21:08;11.57;;;2.73;;
15616;SDS011;7908;51.688;7.130;2022-09-09T13:23:41;4.47;;;2.10;;
15616;SDS011;7908;51.688;7.130;2022-09-09T13:26:20;4.03;;;1.80;;
15616;SDS011;7908;51.688;7.130;2022-09-09T13:28:55;3.83;;;1.90;;
15616;SDS011;7908;51.688;7.130;2022-09-09T13:31:45;5.90;;;1.60;;
15616;SDS011;7908;51.688;7.130;2022-09-09T13:34:25;5.53;;;1.33;;
15616;SDS011;7908;51.688;7.130;2022-09-09T13:37:00;3.23;;;1.53;;
15616;SDS011;7908;51.688;7.130;2022-09-09T13:39:33;3.77;;;1.40;;
15616;SDS011;7908;51.688;7.130;2022-09-09T13:42:19;3.33;;;1.50;;
15616;SDS011;7908;51.688;7.130;2022-09-09T13:44:58;6.23;;;1.60;;
15616;SDS011;7908;51.688;7.130;2022-09-09T13:47:33;5.90;;;1.50;;
15616;SDS011;7908;51.688;7.130;2022-09-09T13:50:18;3.33;;;1.60;;
15616;SDS011;7908;51.688;7.130;2022-09-09T13:52:49;5.00;;;1.43;;
15616;SDS011;7908;51.688;7.130;2022-09-09T13:55:29;4.17;;;1.70;;
15616;SDS011;7908;51.688;7.130;2022-09-09T13:57:59;4.10;;;1.53;;
15616;SDS011;7908;51.688;7.130;2022-09-09T14:00:39;2.67;;;1.30;;
15616;SDS011;7908;51.688;7.130;2022-09-09T14:03:08;3.77;;;1.67;;
15616;SDS011;7908;51.688;7.130;2022-09-09T14:05:40;2.37;;;1.10;;
15616;SDS011;7908;51.688;7.130;2022-09-09T14:08:12;3.90;;;1.20;;
15616;SDS011;7908;51.688;7.130;2022-09-09T14:10:59;6.73;;;2.00;;
15616;SDS011;7908;51.688;7.130;2022-09-09T14:13:32;3.83;;;1.20;;
15616;SDS011;7908;51.688;7.130;2022-09-09T14:16:06;2.50;;;1.10;;
15616;SDS011;7908;51.688;7.130;2022-09-09T14:18:43;3.23;;;1.40;;
15616;SDS011;7908;51.688;7.130;2022-09-09T14:21:16;3.17;;;1.20;;
15616;SDS011;7908;51.688;7.130;2022-09-09T14:23:48;2.07;;;0.90;;
15616;SDS011;7908;51.688;7.130;2022-09-09T14:26:33;2.70;;;1.05;;
15616;SDS011;7908;51.688;7.130;2022-09-09T14:29:02;3.20;;;1.10;;
15616;SDS011;7908;51.688;7.130;2022-09-09T14:31:40;2.73;;;1.17;;
15616;SDS011;7908;51.688;7.130;2022-09-09T14:34:09;2.97;;;1.20;;
15616;SDS011;7908;51.688;7.130;2022-09-09T14:36:46;4.13;;;2.10;;
15616;SDS011;7908;51.688;7.130;2022-09-09T14:39:19;5.70;;;1.87;;
15616;SDS011;7908;51.688;7.130;2022-09-09T14:41:50;5.10;;;1.90;;
15616;SDS011;7908;51.688;7.130;2022-09-09T14:44:25;7.93;;;2.00;;
15616;SDS011;7908;51.688;7.130;2022-09-09T14:46:56;5.70;;;2.00;;
15616;SDS011;7908;51.688;7.130;2022-09-09T14:49:28;5.73;;;1.80;;
15616;SDS011;7908;51.688;7.130;2022-09-09T14:51:58;5.43;;;1.83;;
15616;SDS011;7908;51.688;7.130;2022-09-09T14:54:30;4.93;;;1.53;;
15616;SDS011;7908;51.688;7.130;2022-09-09T14:57:05;5.30;;;2.00;;
15616;SDS011;7908;51.688;7.130;2022-09-09T14:59:34;5.07;;;1.70;;
15616;SDS011;7908;51.688;7.130;2022-09-09T15:02:10;3.93;;;1.50;;
15616;SDS011;7908;51.688;7.130;2022-09-09T15:04:41;2.80;;;1.43;;
15616;SDS011;7908;51.688;7.130;2022-09-09T15:07:13;4.60;;;1.80;;
15616;SDS011;7908;51.688;7.130;2022-09-09T15:09:42;5.00;;;1.90;;
15616;SDS011;7908;51.688;7.130;2022-09-09T15:12:11;5.60;;;1.50;;
15616;SDS011;7908;51.688;7.130;2022-09-09T15:14:45;4.67;;;2.17;;
15616;SDS011;7908;51.688;7.130;2022-09-09T15:17:17;8.53;;;2.40;;
15616;SDS011;7908;51.688;7.130;2022-09-09T15:19:47;10.00;;;3.00;;
15616;SDS011;7908;51.688;7.130;2022-09-09T15:22:17;14.60;;;4.10;;
15616;SDS011;7908;51.688;7.130;2022-09-09T15:24:49;10.03;;;3.40;;
15616;SDS011;7908;51.688;7.130;2022-09-09T15:27:20;15.70;;;5.20;;
15616;SDS011;7908;51.688;7.130;2022-09-09T15:29:49;12.57;;;5.20;;
15616;SDS011;7908;51.688;7.130;2022-09-09T15:32:20;9.77;;;3.90;;
15616;SDS011;7908;51.688;7.130;2022-09-09T15:34:52;7.57;;;3.80;;
15616;SDS011;7908;51.688;7.130;2022-09-09T15:37:21;8.73;;;4.27;;
15616;SDS011;7908;51.688;7.130;2022-09-09T15:39:49;7.43;;;3.10;;
15616;SDS011;7908;51.688;7.130;2022-09-09T15:42:26;5.83;;;2.90;;
15616;SDS011;7908;51.688;7.130;2022-09-09T15:45:01;3.20;;;2.00;;
15616;SDS011;7908;51.688;7.130;2022-09-09T15:47:35;3.90;;;1.97;;
15616;SDS011;7908;51.688;7.130;2022-09-09T15:50:06;2.93;;;1.87;;
15616;SDS011;7908;51.688;7.130;2022-09-09T15:52:42;4.93;;;2.00;;
15616;SDS011;7908;51.688;7.130;2022-09-09T15:55:16;3.37;;;2.00;;
15616;SDS011;7908;51.688;7.130;2022-09-09T15:57:52;6.17;;;4.60;;
15616;SDS011;7908;51.688;7.130;2022-09-09T16:00:28;7.57;;;3.97;;
15616;SDS011;7908;51.688;7.130;2022-09-09T16:03:03;16.43;;;12.40;;
15616;SDS011;7908;51.688;7.130;2022-09-09T16:05:33;11.03;;;9.97;;
15616;SDS011;7908;51.688;7.130;2022-09-09T16:08:04;18.60;;;15.33;;
15616;SDS011;7908;51.688;7.130;2022-09-09T16:10:36;16.33;;;12.83;;
15616;SDS011;7908;51.688;7.130;2022-09-09T16:13:17;8.33;;;5.23;;
15616;SDS011;7908;51.688;7.130;2022-09-09T16:15:59;26.20;;;22.00;;
15616;SDS011;7908;51.688;7.130;2022-09-09T16:18:50;8.73;;;7.67;;
15616;SDS011;7908;51.688;7.130;2022-09-09T16:21:31;22.63;;;20.50;;
15616;SDS011;7908;51.688;7.130;2022-09-09T16:24:04;10.70;;;7.53;;
15616;SDS011;7908;51.688;7.130;2022-09-09T16:26:37;4.40;;;3.30;;
15616;SDS011;7908;51.688;7.130;2022-09-09T16:29:15;9.07;;;5.87;;
15616;SDS011;7908;51.688;7.130;2022-09-09T16:31:54;9.00;;;4.37;;
15616;SDS011;7908;51.688;7.130;2022-09-09T16:34:32;4.43;;;2.37;;
15616;SDS011;7908;51.688;7.130;2022-09-09T16:37:04;3.47;;;2.57;;
15616;SDS011;7908;51.688;7.130;2022-09-09T16:39:45;1.47;;;1.20;;
15616;SDS011;7908;51.688;7.130;2022-09-09T16:42:20;4.87;;;1.70;;
15616;SDS011;7908;51.688;7.130;2022-09-09T16:44:49;3.47;;;1.30;;
15616;SDS011;7908;51.688;7.130;2022-09-09T16:47:24;3.40;;;1.27;;
15616;SDS011;7908;51.688;7.130;2022-09-09T16:49:55;2.37;;;1.17;;